WEATHER DATA

YESTERDAY
Time Temp. Dewp. Hum. Bar.
00:19 11.9 -3.4 33 1027.7
00:30 11.7 -3.2 34 1027.8
00:39 11.2 -3.6 34 1027.7
00:49 10.8 -3.6 35 1027.7
01:00 10.4 -3.6 36 1027.5
01:10 10.3 -3.6 36 1027.4
01:19 10.2 -3.7 36 1027.4
01:29 10.1 -3.8 36 1027.5
01:40 10.1 -3.8 36 1027.2
01:50 10.1 -3.8 36 1027.1
01:59 10.2 -4 35 1027
02:10 10.6 -3.7 35 1026.9
02:20 10.8 -3.6 35 1026.8
02:30 11 -3.8 34 1026.6
02:39 11.2 -3.6 34 1026.5
02:50 11.4 -3.4 34 1026.6
03:00 11.4 -3.4 34 1026.4
03:10 11.2 -3.6 34 1026.5
03:20 11 -3.8 34 1026.4
03:30 10.7 -4 34 1026.4
03:40 10.6 -4.1 34 1026.1
03:50 10.4 -3.9 35 1026.1
04:01 10.3 -3.3 37 1026
04:10 9.9 -3.3 38 1025.9
04:20 9.6 -3.6 38 1025.9
04:31 9.4 -3.7 38 1025.8
04:41 9.1 -3.6 39 1025.7
04:50 9 -3.7 39 1025.7
05:00 8.7 -4 39 1025.5
05:11 8.5 -3.8 40 1025.6
05:21 8.4 -3.6 41 1025.4
05:30 8.4 -3 43 1025.4
05:41 8.4 -3.3 42 1025.5
05:51 8.3 -4 40 1025.3
06:01 8.1 -3.3 43 1025.4
06:11 8.2 -3.2 43 1025.4
06:21 8.3 -2.9 44 1025.3
06:31 8.6 -2.3 45 1025.3
06:41 8.8 -2.2 45 1025.3
06:51 9 -2.3 44 1025.3
07:01 9.2 -2.1 44 1025.2
07:11 9.5 -1.9 44 1025.3
07:21 9.8 -1.9 43 1025.3
07:31 10 -2 42 1025.4
07:41 10.3 -1.8 42 1025.3
07:51 10.4 -2 41 1025.3
08:02 10.7 -1.8 41 1025.3
08:21 11.4 -1.5 40 1025.3
08:31 11.9 -1.4 39 1025.4
08:42 12.4 -1.3 38 1025.4
08:51 12.8 -1 38 1025.4
09:01 13.3 -0.6 38 1025.3
09:22 13.9 -0.5 37 1025.4
09:32 14.2 -0.6 36 1025.3
09:42 14.6 0.1 37 1025.3
10:02 15.7 -0.1 34 1025
10:12 15.6 0.2 35 1025
10:22 15.9 0.1 34 1024.9
10:32 16.1 0.6 35 1024.9
10:42 16.4 0.1 33 1024.9
11:02 17 0.2 32 1024.7
11:12 17 -0.2 31 1024.7
11:22 17 -0.2 31 1024.6
11:33 17 -0.2 31 1024.6
11:42 17.9 0.1 30 1024.3
11:52 18.1 -0.2 29 1024.4
12:03 18.3 0.4 30 1024.4
12:13 18.3 0 29 1024.3
12:22 19.2 1.2 30 1024.1
12:32 19.4 0.4 28 1024
12:43 19.7 0.7 28 1024
12:53 20.2 0.6 27 1023.7
13:02 20.3 0.7 27 1023.7
13:13 20.4 0.3 26 1023.6
13:23 21.1 0.3 25 1023.5
13:33 21.3 0.5 25 1023.4
13:43 22.1 0.6 24 1023.5
13:53 23.2 1.5 24 1023.4
14:03 23.4 0.5 22 1023.3
14:13 24.5 1.4 22 1023.1
14:23 25.3 1.4 21 1023.1
14:33 25.5 0.9 20 1022.9
14:43 25.9 0.5 19 1023
14:53 26.9 2.1 20 1022.7
15:04 27.7 2.7 20 1022.5
15:13 28.3 2.5 19 1022.5
15:23 29 2.3 18 1022.5
15:34 29.6 2.8 18 1022.2
15:44 29.8 3 18 1022.1
15:53 30.1 1.5 16 1022
16:03 29.4 1.8 17 1022
16:14 29.6 2 17 1021.8
16:24 30.5 2.7 17 1021.6
16:33 30.1 1.5 16 1021.5
16:44 31.3 2.5 16 1021.5
16:54 31.1 2.3 16 1021.4
17:04 30.5 1.9 16 1021.4
17:14 30 1.5 16 1021.4
17:24 30.1 2.4 17 1021.2
17:34 30 0.6 15 1021.2
17:44 30.2 3.3 18 1021.1
17:54 30.1 1.5 16 1021
18:04 31 3.1 17 1021
18:14 31.1 3.2 17 1020.9
18:24 31.1 3.2 17 1020.7
18:35 30.6 2.8 17 1020.5
18:44 29.7 2.9 18 1020.5
18:54 28.9 3 19 1020.5
19:05 28.1 3.1 20 1020.3
19:15 26.2 2.2 21 1020.3
19:24 25 1.8 22 1020.4
19:34 23.1 0.9 23 1020.2
19:45 20.9 0.2 25 1020.3
19:55 19.1 -0.3 27 1020.3
20:04 17.9 -0.3 29 1020.2
20:15 16.8 -0.8 30 1020.3
20:25 16 -1 31 1020.4
20:35 15.4 -1.1 32 1020.3
20:45 14.9 -1.4 32 1020.4
20:55 14.4 -1.5 33 1020.4
21:05 14 -1.8 33 1020.4
21:15 13.8 -1.6 34 1020.4
21:25 13.5 -1.8 34 1020.4
21:35 13.3 -1.6 35 1020.3
21:45 13.1 -1.8 35 1020.3
21:55 12.9 -1.6 36 1020.2
22:05 12.7 -1.7 36 1020.1
22:15 12.6 -1.8 36 1020.2
22:25 12.5 -1.6 37 1020.2
22:36 12.4 -2 36 1020.1
22:46 12.3 -2.1 36 1020.1
22:55 12.2 -2.1 36 1019.9
23:06 12.1 -2.2 36 1020.1
23:16 12 -2.3 36 1020
23:26 12 -2.3 36 1020
23:35 11.9 -2.4 36 1019.8
23:46 11.9 -2.4 36 1019.8
23:56 11.8 -2.5 36 1019.7

DAY STATISTIC

2019-04-21
TEMPERATURE
AVERAGE
16.9
HIGH
31.3
16:44
LOW
8.1
06:01
PRESSURE
AVERAGE
1023.5
HIGH
1027.8
00:30
LOW
1019.7
23:56
DEWPOINT
AVERAGE
-0.9
HIGH
3.3
17:44
LOW
-4.1
03:40
HUMIDITY
AVERAGE
31
HIGH
45
06:31
LOW
15
17:34
TEMPERATURE (°C)
LOW
8.1
HIGH
31.3
AVERAGE
16.9
PRESSURE (hpa)
LOW
1019.7
HIGH
1027.8
AVERAGE
1023.5
DEVICE